sensor_id;sensor_type;location;lat;lon;timestamp;temperature;humidity
78520;SHT31;67818;51.986;5.648;2023-10-31T00:00:34;11.8;84.6
78520;SHT31;67818;51.986;5.648;2023-10-31T00:03:02;11.8;84.8
78520;SHT31;67818;51.986;5.648;2023-10-31T00:05:32;11.8;84.9
78520;SHT31;67818;51.986;5.648;2023-10-31T00:08:01;11.8;84.6
78520;SHT31;67818;51.986;5.648;2023-10-31T00:10:30;11.7;84.6
78520;SHT31;67818;51.986;5.648;2023-10-31T00:12:58;11.7;84.6
78520;SHT31;67818;51.986;5.648;2023-10-31T00:15:27;11.7;84.6
78520;SHT31;67818;51.986;5.648;2023-10-31T00:17:58;11.7;84.4
78520;SHT31;67818;51.986;5.648;2023-10-31T00:20:27;11.7;83.7
78520;SHT31;67818;51.986;5.648;2023-10-31T00:22:56;11.7;83.9
78520;SHT31;67818;51.986;5.648;2023-10-31T00:25:24;11.6;84.0
78520;SHT31;67818;51.986;5.648;2023-10-31T00:27:53;11.6;84.0
78520;SHT31;67818;51.986;5.648;2023-10-31T00:30:21;11.6;84.2
78520;SHT31;67818;51.986;5.648;2023-10-31T00:32:50;11.6;84.1
78520;SHT31;67818;51.986;5.648;2023-10-31T00:35:18;11.5;84.4
78520;SHT31;67818;51.986;5.648;2023-10-31T00:37:47;11.5;84.3
78520;SHT31;67818;51.986;5.648;2023-10-31T00:40:15;11.5;84.4
78520;SHT31;67818;51.986;5.648;2023-10-31T00:42:44;11.5;84.4
78520;SHT31;67818;51.986;5.648;2023-10-31T00:45:12;11.5;84.7
78520;SHT31;67818;51.986;5.648;2023-10-31T00:47:42;11.5;84.9
78520;SHT31;67818;51.986;5.648;2023-10-31T00:50:11;11.5;84.9
78520;SHT31;67818;51.986;5.648;2023-10-31T00:52:39;11.5;85.1
78520;SHT31;67818;51.986;5.648;2023-10-31T00:55:10;11.5;85.2
78520;SHT31;67818;51.986;5.648;2023-10-31T00:57:40;11.6;85.0
78520;SHT31;67818;51.986;5.648;2023-10-31T01:00:09;11.6;85.2
78520;SHT31;67818;51.986;5.648;2023-10-31T01:02:40;11.6;85.0
78520;SHT31;67818;51.986;5.648;2023-10-31T01:05:11;11.6;84.9
78520;SHT31;67818;51.986;5.648;2023-10-31T01:07:39;11.6;85.2
78520;SHT31;67818;51.986;5.648;2023-10-31T01:10:09;11.6;85.2
78520;SHT31;67818;51.986;5.648;2023-10-31T01:12:38;11.6;85.2
78520;SHT31;67818;51.986;5.648;2023-10-31T01:15:10;11.7;85.3
78520;SHT31;67818;51.986;5.648;2023-10-31T01:17:39;11.7;85.4
78520;SHT31;67818;51.986;5.648;2023-10-31T01:20:08;11.7;85.5
78520;SHT31;67818;51.986;5.648;2023-10-31T01:22:38;11.7;85.4
78520;SHT31;67818;51.986;5.648;2023-10-31T01:25:10;11.7;85.3
78520;SHT31;67818;51.986;5.648;2023-10-31T01:27:39;11.7;85.2
78520;SHT31;67818;51.986;5.648;2023-10-31T01:30:12;11.8;85.2
78520;SHT31;67818;51.986;5.648;2023-10-31T01:32:40;11.8;85.1
78520;SHT31;67818;51.986;5.648;2023-10-31T01:35:10;11.8;85.0
78520;SHT31;67818;51.986;5.648;2023-10-31T01:37:38;11.8;84.9
78520;SHT31;67818;51.986;5.648;2023-10-31T01:40:08;11.8;84.9
78520;SHT31;67818;51.986;5.648;2023-10-31T01:42:40;11.8;85.0
78520;SHT31;67818;51.986;5.648;2023-10-31T01:45:11;11.9;84.9
78520;SHT31;67818;51.986;5.648;2023-10-31T01:47:40;11.9;84.8
78520;SHT31;67818;51.986;5.648;2023-10-31T01:50:09;11.9;84.7
78520;SHT31;67818;51.986;5.648;2023-10-31T01:52:38;11.9;85.0
78520;SHT31;67818;51.986;5.648;2023-10-31T01:55:09;11.9;84.7
78520;SHT31;67818;51.986;5.648;2023-10-31T01:57:39;12.0;84.6
78520;SHT31;67818;51.986;5.648;2023-10-31T02:00:10;12.0;84.5
78520;SHT31;67818;51.986;5.648;2023-10-31T02:02:40;12.0;84.6
78520;SHT31;67818;51.986;5.648;2023-10-31T02:05:11;12.0;84.3
78520;SHT31;67818;51.986;5.648;2023-10-31T02:07:42;12.0;84.2
78520;SHT31;67818;51.986;5.648;2023-10-31T02:10:13;12.0;84.1
78520;SHT31;67818;51.986;5.648;2023-10-31T02:12:44;12.1;84.1
78520;SHT31;67818;51.986;5.648;2023-10-31T02:15:14;12.1;84.1
78520;SHT31;67818;51.986;5.648;2023-10-31T02:17:42;12.1;84.1
78520;SHT31;67818;51.986;5.648;2023-10-31T02:20:12;12.1;83.9
78520;SHT31;67818;51.986;5.648;2023-10-31T02:22:42;12.1;83.9
78520;SHT31;67818;51.986;5.648;2023-10-31T02:25:18;12.1;84.0
78520;SHT31;67818;51.986;5.648;2023-10-31T02:27:47;12.1;84.1
78520;SHT31;67818;51.986;5.648;2023-10-31T02:30:16;12.1;84.3
78520;SHT31;67818;51.986;5.648;2023-10-31T02:32:47;12.1;84.4
78520;SHT31;67818;51.986;5.648;2023-10-31T02:35:18;12.1;84.4
78520;SHT31;67818;51.986;5.648;2023-10-31T02:37:47;12.1;84.5
78520;SHT31;67818;51.986;5.648;2023-10-31T02:40:16;12.1;84.4
78520;SHT31;67818;51.986;5.648;2023-10-31T02:42:45;12.1;84.4
78520;SHT31;67818;51.986;5.648;2023-10-31T02:45:15;12.1;84.3
78520;SHT31;67818;51.986;5.648;2023-10-31T02:47:45;12.1;84.6
78520;SHT31;67818;51.986;5.648;2023-10-31T02:50:14;12.1;84.6
78520;SHT31;67818;51.986;5.648;2023-10-31T02:52:42;12.1;84.7
78520;SHT31;67818;51.986;5.648;2023-10-31T02:55:10;12.1;84.8
78520;SHT31;67818;51.986;5.648;2023-10-31T02:57:39;12.1;84.7
78520;SHT31;67818;51.986;5.648;2023-10-31T03:00:08;12.1;84.7
78520;SHT31;67818;51.986;5.648;2023-10-31T03:02:37;12.2;84.8
78520;SHT31;67818;51.986;5.648;2023-10-31T03:05:06;12.2;84.6
78520;SHT31;67818;51.986;5.648;2023-10-31T03:07:35;12.2;84.6
78520;SHT31;67818;51.986;5.648;2023-10-31T03:10:05;12.2;84.5
78520;SHT31;67818;51.986;5.648;2023-10-31T03:12:33;12.2;84.4
78520;SHT31;67818;51.986;5.648;2023-10-31T03:15:03;12.2;84.3
78520;SHT31;67818;51.986;5.648;2023-10-31T03:17:31;12.2;84.6
78520;SHT31;67818;51.986;5.648;2023-10-31T03:20:00;12.3;84.7
78520;SHT31;67818;51.986;5.648;2023-10-31T03:22:29;12.3;84.3
78520;SHT31;67818;51.986;5.648;2023-10-31T03:24:58;12.3;84.5
78520;SHT31;67818;51.986;5.648;2023-10-31T03:27:26;12.4;84.2
78520;SHT31;67818;51.986;5.648;2023-10-31T03:29:54;12.5;83.4
78520;SHT31;67818;51.986;5.648;2023-10-31T03:32:23;12.6;82.9
78520;SHT31;67818;51.986;5.648;2023-10-31T03:34:51;12.7;82.4
78520;SHT31;67818;51.986;5.648;2023-10-31T03:37:21;12.8;82.0
78520;SHT31;67818;51.986;5.648;2023-10-31T03:39:49;12.9;81.6
78520;SHT31;67818;51.986;5.648;2023-10-31T03:42:18;12.9;81.2
78520;SHT31;67818;51.986;5.648;2023-10-31T03:44:46;13.0;80.7
78520;SHT31;67818;51.986;5.648;2023-10-31T03:47:15;13.0;80.2
78520;SHT31;67818;51.986;5.648;2023-10-31T03:49:43;13.1;79.9
78520;SHT31;67818;51.986;5.648;2023-10-31T03:52:11;13.1;79.7
78520;SHT31;67818;51.986;5.648;2023-10-31T03:54:40;13.1;79.5
78520;SHT31;67818;51.986;5.648;2023-10-31T03:57:10;13.1;79.5
78520;SHT31;67818;51.986;5.648;2023-10-31T03:59:39;13.1;79.4
78520;SHT31;67818;51.986;5.648;2023-10-31T04:02:08;13.1;79.5
78520;SHT31;67818;51.986;5.648;2023-10-31T04:04:36;13.0;79.7
78520;SHT31;67818;51.986;5.648;2023-10-31T04:07:05;13.0;79.7
78520;SHT31;67818;51.986;5.648;2023-10-31T04:09:33;12.9;79.9
78520;SHT31;67818;51.986;5.648;2023-10-31T04:12:01;12.8;80.4
78520;SHT31;67818;51.986;5.648;2023-10-31T04:14:32;12.8;80.4
78520;SHT31;67818;51.986;5.648;2023-10-31T04:17:00;12.7;80.8
78520;SHT31;67818;51.986;5.648;2023-10-31T04:19:30;12.6;81.0
78520;SHT31;67818;51.986;5.648;2023-10-31T04:22:00;12.6;81.3
78520;SHT31;67818;51.986;5.648;2023-10-31T04:24:29;12.6;81.6
78520;SHT31;67818;51.986;5.648;2023-10-31T04:26:58;12.6;81.9
78520;SHT31;67818;51.986;5.648;2023-10-31T04:29:27;12.6;82.0
78520;SHT31;67818;51.986;5.648;2023-10-31T04:31:56;12.6;82.0
78520;SHT31;67818;51.986;5.648;2023-10-31T04:34:24;12.7;81.9
78520;SHT31;67818;51.986;5.648;2023-10-31T04:36:52;12.7;81.9
78520;SHT31;67818;51.986;5.648;2023-10-31T04:39:21;12.7;81.6
78520;SHT31;67818;51.986;5.648;2023-10-31T04:41:49;12.8;81.5
78520;SHT31;67818;51.986;5.648;2023-10-31T04:44:18;12.8;81.2
78520;SHT31;67818;51.986;5.648;2023-10-31T04:46:48;12.8;80.8
78520;SHT31;67818;51.986;5.648;2023-10-31T04:49:18;12.8;80.8
78520;SHT31;67818;51.986;5.648;2023-10-31T04:51:48;12.7;80.9
78520;SHT31;67818;51.986;5.648;2023-10-31T04:54:16;12.7;81.1
78520;SHT31;67818;51.986;5.648;2023-10-31T04:56:47;12.6;81.3
78520;SHT31;67818;51.986;5.648;2023-10-31T04:59:16;12.6;81.4
78520;SHT31;67818;51.986;5.648;2023-10-31T05:01:50;12.6;81.4
78520;SHT31;67818;51.986;5.648;2023-10-31T05:04:21;12.5;81.3
78520;SHT31;67818;51.986;5.648;2023-10-31T05:06:49;12.5;81.5
78520;SHT31;67818;51.986;5.648;2023-10-31T05:09:18;12.4;81.8
78520;SHT31;67818;51.986;5.648;2023-10-31T05:11:49;12.4;81.9
78520;SHT31;67818;51.986;5.648;2023-10-31T05:14:18;12.4;81.9
78520;SHT31;67818;51.986;5.648;2023-10-31T05:16:47;12.4;82.0
78520;SHT31;67818;51.986;5.648;2023-10-31T05:19:16;12.4;82.0
78520;SHT31;67818;51.986;5.648;2023-10-31T05:21:46;12.4;82.1
78520;SHT31;67818;51.986;5.648;2023-10-31T05:24:15;12.3;82.1
78520;SHT31;67818;51.986;5.648;2023-10-31T05:26:46;12.3;82.1
78520;SHT31;67818;51.986;5.648;2023-10-31T05:29:15;12.3;82.0
78520;SHT31;67818;51.986;5.648;2023-10-31T05:31:44;12.3;82.1
78520;SHT31;67818;51.986;5.648;2023-10-31T05:34:13;12.3;82.1
78520;SHT31;67818;51.986;5.648;2023-10-31T05:36:43;12.3;82.2
78520;SHT31;67818;51.986;5.648;2023-10-31T05:39:11;12.3;82.0
78520;SHT31;67818;51.986;5.648;2023-10-31T05:41:43;12.3;81.9
78520;SHT31;67818;51.986;5.648;2023-10-31T05:44:11;12.3;81.8
78520;SHT31;67818;51.986;5.648;2023-10-31T05:46:41;12.2;81.7
78520;SHT31;67818;51.986;5.648;2023-10-31T05:49:11;12.2;81.8
78520;SHT31;67818;51.986;5.648;2023-10-31T05:51:40;12.2;81.4
78520;SHT31;67818;51.986;5.648;2023-10-31T05:54:10;12.2;81.2
78520;SHT31;67818;51.986;5.648;2023-10-31T05:56:38;12.2;81.1
78520;SHT31;67818;51.986;5.648;2023-10-31T05:59:07;12.2;80.9
78520;SHT31;67818;51.986;5.648;2023-10-31T06:01:38;12.2;80.7
78520;SHT31;67818;51.986;5.648;2023-10-31T06:04:08;12.1;80.9
78520;SHT31;67818;51.986;5.648;2023-10-31T06:06:39;12.1;81.0
78520;SHT31;67818;51.986;5.648;2023-10-31T06:09:07;12.1;81.1
78520;SHT31;67818;51.986;5.648;2023-10-31T06:11:40;12.0;81.2
78520;SHT31;67818;51.986;5.648;2023-10-31T06:14:09;12.0;81.2
78520;SHT31;67818;51.986;5.648;2023-10-31T06:16:43;11.9;81.6
78520;SHT31;67818;51.986;5.648;2023-10-31T06:19:12;11.9;81.8
78520;SHT31;67818;51.986;5.648;2023-10-31T06:21:41;11.9;81.9
78520;SHT31;67818;51.986;5.648;2023-10-31T06:24:12;11.9;82.1
78520;SHT31;67818;51.986;5.648;2023-10-31T06:26:41;11.9;82.3
78520;SHT31;67818;51.986;5.648;2023-10-31T06:29:09;11.8;82.4
78520;SHT31;67818;51.986;5.648;2023-10-31T06:31:38;11.8;82.8
78520;SHT31;67818;51.986;5.648;2023-10-31T06:34:06;11.8;82.8
78520;SHT31;67818;51.986;5.648;2023-10-31T06:36:35;11.8;83.0
78520;SHT31;67818;51.986;5.648;2023-10-31T06:39:04;11.8;83.1
78520;SHT31;67818;51.986;5.648;2023-10-31T06:41:33;11.8;83.2
78520;SHT31;67818;51.986;5.648;2023-10-31T06:44:02;11.8;83.2
78520;SHT31;67818;51.986;5.648;2023-10-31T06:46:30;11.8;83.5
78520;SHT31;67818;51.986;5.648;2023-10-31T06:48:58;11.8;83.7
78520;SHT31;67818;51.986;5.648;2023-10-31T06:51:27;11.8;83.6
78520;SHT31;67818;51.986;5.648;2023-10-31T06:53:56;11.9;83.6
78520;SHT31;67818;51.986;5.648;2023-10-31T06:56:26;11.9;83.4
78520;SHT31;67818;51.986;5.648;2023-10-31T06:58:55;11.9;83.1
78520;SHT31;67818;51.986;5.648;2023-10-31T07:01:24;11.9;83.1
78520;SHT31;67818;51.986;5.648;2023-10-31T07:03:53;11.8;83.0
78520;SHT31;67818;51.986;5.648;2023-10-31T07:06:21;11.8;83.0
78520;SHT31;67818;51.986;5.648;2023-10-31T07:08:52;11.8;82.9
78520;SHT31;67818;51.986;5.648;2023-10-31T07:11:20;11.8;83.0
78520;SHT31;67818;51.986;5.648;2023-10-31T07:13:49;11.8;82.9
78520;SHT31;67818;51.986;5.648;2023-10-31T07:16:17;11.8;83.1
78520;SHT31;67818;51.986;5.648;2023-10-31T07:18:45;11.7;83.2
78520;SHT31;67818;51.986;5.648;2023-10-31T07:21:14;11.7;83.5
78520;SHT31;67818;51.986;5.648;2023-10-31T07:23:42;11.7;83.7
78520;SHT31;67818;51.986;5.648;2023-10-31T07:26:11;11.7;84.0
78520;SHT31;67818;51.986;5.648;2023-10-31T07:28:39;11.7;84.2
78520;SHT31;67818;51.986;5.648;2023-10-31T07:31:08;11.7;84.4
78520;SHT31;67818;51.986;5.648;2023-10-31T07:33:37;11.7;84.4
78520;SHT31;67818;51.986;5.648;2023-10-31T07:36:06;11.8;84.4
78520;SHT31;67818;51.986;5.648;2023-10-31T07:38:35;11.8;84.3
78520;SHT31;67818;51.986;5.648;2023-10-31T07:41:04;11.9;84.3
78520;SHT31;67818;51.986;5.648;2023-10-31T07:43:32;12.0;83.9
78520;SHT31;67818;51.986;5.648;2023-10-31T07:46:01;12.0;83.5
78520;SHT31;67818;51.986;5.648;2023-10-31T07:48:31;12.1;83.2
78520;SHT31;67818;51.986;5.648;2023-10-31T07:50:59;12.1;83.0
78520;SHT31;67818;51.986;5.648;2023-10-31T07:53:28;12.1;83.1
78520;SHT31;67818;51.986;5.648;2023-10-31T07:55:56;12.1;83.2
78520;SHT31;67818;51.986;5.648;2023-10-31T07:58:27;12.1;83.5
78520;SHT31;67818;51.986;5.648;2023-10-31T08:00:56;12.2;83.8
78520;SHT31;67818;51.986;5.648;2023-10-31T08:03:24;12.2;84.2
78520;SHT31;67818;51.986;5.648;2023-10-31T08:05:53;12.3;84.6
78520;SHT31;67818;51.986;5.648;2023-10-31T08:08:21;12.3;85.2
78520;SHT31;67818;51.986;5.648;2023-10-31T08:10:50;12.4;84.7
78520;SHT31;67818;51.986;5.648;2023-10-31T08:13:18;12.5;84.5
78520;SHT31;67818;51.986;5.648;2023-10-31T08:15:47;12.5;84.1
78520;SHT31;67818;51.986;5.648;2023-10-31T08:18:15;12.6;83.8
78520;SHT31;67818;51.986;5.648;2023-10-31T08:20:44;12.6;84.0
78520;SHT31;67818;51.986;5.648;2023-10-31T08:23:15;12.7;83.8
78520;SHT31;67818;51.986;5.648;2023-10-31T08:25:44;12.7;83.3
78520;SHT31;67818;51.986;5.648;2023-10-31T08:28:12;12.7;83.2
78520;SHT31;67818;51.986;5.648;2023-10-31T08:30:40;12.8;83.3
78520;SHT31;67818;51.986;5.648;2023-10-31T08:33:10;12.8;83.1
78520;SHT31;67818;51.986;5.648;2023-10-31T08:35:38;12.8;83.2
78520;SHT31;67818;51.986;5.648;2023-10-31T08:38:07;12.9;82.4
78520;SHT31;67818;51.986;5.648;2023-10-31T08:40:36;12.9;82.2
78520;SHT31;67818;51.986;5.648;2023-10-31T08:43:04;12.9;82.2
78520;SHT31;67818;51.986;5.648;2023-10-31T08:45:34;12.9;81.8
78520;SHT31;67818;51.986;5.648;2023-10-31T08:48:03;12.9;81.7
78520;SHT31;67818;51.986;5.648;2023-10-31T08:50:32;12.9;81.8
78520;SHT31;67818;51.986;5.648;2023-10-31T08:53:01;12.9;82.3
78520;SHT31;67818;51.986;5.648;2023-10-31T08:55:29;12.9;83.1
78520;SHT31;67818;51.986;5.648;2023-10-31T08:57:57;13.0;84.0
78520;SHT31;67818;51.986;5.648;2023-10-31T09:00:26;13.0;83.9
78520;SHT31;67818;51.986;5.648;2023-10-31T09:02:55;13.1;83.4
78520;SHT31;67818;51.986;5.648;2023-10-31T09:05:24;13.1;83.4
78520;SHT31;67818;51.986;5.648;2023-10-31T09:07:52;13.2;83.4
78520;SHT31;67818;51.986;5.648;2023-10-31T09:10:21;13.2;83.6
78520;SHT31;67818;51.986;5.648;2023-10-31T09:12:51;13.3;83.5
78520;SHT31;67818;51.986;5.648;2023-10-31T09:15:22;13.4;83.1
78520;SHT31;67818;51.986;5.648;2023-10-31T09:17:50;13.4;82.3
78520;SHT31;67818;51.986;5.648;2023-10-31T09:20:19;13.5;82.0
78520;SHT31;67818;51.986;5.648;2023-10-31T09:22:47;13.5;81.8
78520;SHT31;67818;51.986;5.648;2023-10-31T09:25:16;13.5;81.6
78520;SHT31;67818;51.986;5.648;2023-10-31T09:27:45;13.6;81.3
78520;SHT31;67818;51.986;5.648;2023-10-31T09:30:14;13.6;81.1
78520;SHT31;67818;51.986;5.648;2023-10-31T09:32:43;13.6;81.5
78520;SHT31;67818;51.986;5.648;2023-10-31T09:35:11;13.7;81.8
78520;SHT31;67818;51.986;5.648;2023-10-31T09:37:41;13.7;81.2
78520;SHT31;67818;51.986;5.648;2023-10-31T09:40:11;13.7;81.6
78520;SHT31;67818;51.986;5.648;2023-10-31T09:42:40;13.7;81.6
78520;SHT31;67818;51.986;5.648;2023-10-31T09:45:09;13.7;81.6
78520;SHT31;67818;51.986;5.648;2023-10-31T09:47:38;13.8;81.8
78520;SHT31;67818;51.986;5.648;2023-10-31T09:50:09;13.8;81.2
78520;SHT31;67818;51.986;5.648;2023-10-31T09:52:39;13.8;81.0
78520;SHT31;67818;51.986;5.648;2023-10-31T09:55:08;13.8;81.6
78520;SHT31;67818;51.986;5.648;2023-10-31T09:57:39;13.8;81.6
78520;SHT31;67818;51.986;5.648;2023-10-31T10:00:08;13.8;81.1
78520;SHT31;67818;51.986;5.648;2023-10-31T10:02:38;13.9;81.0
78520;SHT31;67818;51.986;5.648;2023-10-31T10:05:09;13.9;81.1
78520;SHT31;67818;51.986;5.648;2023-10-31T10:07:41;13.9;81.6
78520;SHT31;67818;51.986;5.648;2023-10-31T10:10:12;14.0;81.5
78520;SHT31;67818;51.986;5.648;2023-10-31T10:12:45;14.0;81.5
78520;SHT31;67818;51.986;5.648;2023-10-31T10:15:14;14.0;81.4
78520;SHT31;67818;51.986;5.648;2023-10-31T10:17:51;14.1;82.1
78520;SHT31;67818;51.986;5.648;2023-10-31T10:20:20;14.2;81.2
78520;SHT31;67818;51.986;5.648;2023-10-31T10:22:49;14.3;80.6
78520;SHT31;67818;51.986;5.648;2023-10-31T10:25:18;14.4;79.9
78520;SHT31;67818;51.986;5.648;2023-10-31T10:27:48;14.4;79.7
78520;SHT31;67818;51.986;5.648;2023-10-31T10:30:16;14.4;79.3
78520;SHT31;67818;51.986;5.648;2023-10-31T10:32:47;14.5;79.8
78520;SHT31;67818;51.986;5.648;2023-10-31T10:35:17;14.5;79.6
78520;SHT31;67818;51.986;5.648;2023-10-31T10:37:47;14.6;80.1
78520;SHT31;67818;51.986;5.648;2023-10-31T10:40:17;14.6;79.7
78520;SHT31;67818;51.986;5.648;2023-10-31T10:42:47;14.7;79.7
78520;SHT31;67818;51.986;5.648;2023-10-31T10:45:17;14.7;79.1
78520;SHT31;67818;51.986;5.648;2023-10-31T10:47:49;14.8;79.9
78520;SHT31;67818;51.986;5.648;2023-10-31T10:50:19;14.9;79.5
78520;SHT31;67818;51.986;5.648;2023-10-31T10:53:03;14.9;78.1
78520;SHT31;67818;51.986;5.648;2023-10-31T10:55:40;15.0;78.3
78520;SHT31;67818;51.986;5.648;2023-10-31T10:58:21;15.0;78.1
78520;SHT31;67818;51.986;5.648;2023-10-31T11:00:51;15.1;78.5
78520;SHT31;67818;51.986;5.648;2023-10-31T11:03:22;15.3;77.4
78520;SHT31;67818;51.986;5.648;2023-10-31T11:05:52;15.4;78.1
78520;SHT31;67818;51.986;5.648;2023-10-31T11:08:23;15.6;77.0
78520;SHT31;67818;51.986;5.648;2023-10-31T11:10:54;15.7;75.3
78520;SHT31;67818;51.986;5.648;2023-10-31T11:13:24;15.8;74.9
78520;SHT31;67818;51.986;5.648;2023-10-31T11:15:59;15.8;73.1
78520;SHT31;67818;51.986;5.648;2023-10-31T11:18:30;15.7;73.1
78520;SHT31;67818;51.986;5.648;2023-10-31T11:20:59;15.7;73.9
78520;SHT31;67818;51.986;5.648;2023-10-31T11:23:29;15.6;74.2
78520;SHT31;67818;51.986;5.648;2023-10-31T11:25:57;15.6;75.1
78520;SHT31;67818;51.986;5.648;2023-10-31T11:28:26;15.6;75.5
78520;SHT31;67818;51.986;5.648;2023-10-31T11:30:56;15.6;74.8
78520;SHT31;67818;51.986;5.648;2023-10-31T11:33:29;15.6;75.0
78520;SHT31;67818;51.986;5.648;2023-10-31T11:36:03;15.7;75.3
78520;SHT31;67818;51.986;5.648;2023-10-31T11:38:36;15.8;76.2
78520;SHT31;67818;51.986;5.648;2023-10-31T11:41:05;16.0;74.0
78520;SHT31;67818;51.986;5.648;2023-10-31T11:43:52;16.1;72.9
78520;SHT31;67818;51.986;5.648;2023-10-31T11:46:22;16.1;72.4
78520;SHT31;67818;51.986;5.648;2023-10-31T11:48:53;16.1;71.9
78520;SHT31;67818;51.986;5.648;2023-10-31T11:51:22;16.1;72.2
78520;SHT31;67818;51.986;5.648;2023-10-31T11:53:52;16.1;72.9
78520;SHT31;67818;51.986;5.648;2023-10-31T11:56:21;16.1;72.9
78520;SHT31;67818;51.986;5.648;2023-10-31T11:58:57;16.2;73.4
78520;SHT31;67818;51.986;5.648;2023-10-31T12:01:26;16.4;71.8
78520;SHT31;67818;51.986;5.648;2023-10-31T12:03:55;16.5;72.3
78520;SHT31;67818;51.986;5.648;2023-10-31T12:06:24;16.6;69.6
78520;SHT31;67818;51.986;5.648;2023-10-31T12:08:53;16.6;68.5
78520;SHT31;67818;51.986;5.648;2023-10-31T12:11:23;16.6;68.3
78520;SHT31;67818;51.986;5.648;2023-10-31T12:13:57;16.5;68.8
78520;SHT31;67818;51.986;5.648;2023-10-31T12:16:29;16.4;69.4
78520;SHT31;67818;51.986;5.648;2023-10-31T12:18:59;16.3;70.1
78520;SHT31;67818;51.986;5.648;2023-10-31T12:21:40;16.2;70.1
78520;SHT31;67818;51.986;5.648;2023-10-31T12:24:12;16.1;70.4
78520;SHT31;67818;51.986;5.648;2023-10-31T12:26:41;15.9;70.7
78520;SHT31;67818;51.986;5.648;2023-10-31T12:29:13;15.9;71.0
78520;SHT31;67818;51.986;5.648;2023-10-31T12:31:46;15.8;70.3
78520;SHT31;67818;51.986;5.648;2023-10-31T12:34:17;15.6;71.8
78520;SHT31;67818;51.986;5.648;2023-10-31T12:36:47;15.6;72.2
78520;SHT31;67818;51.986;5.648;2023-10-31T12:39:20;15.5;72.9
78520;SHT31;67818;51.986;5.648;2023-10-31T12:41:52;15.4;72.7
78520;SHT31;67818;51.986;5.648;2023-10-31T12:44:26;15.4;73.6
78520;SHT31;67818;51.986;5.648;2023-10-31T12:46:55;15.4;72.8
78520;SHT31;67818;51.986;5.648;2023-10-31T12:49:24;15.4;73.3
78520;SHT31;67818;51.986;5.648;2023-10-31T12:51:59;15.3;73.6
78520;SHT31;67818;51.986;5.648;2023-10-31T12:54:32;15.3;74.1
78520;SHT31;67818;51.986;5.648;2023-10-31T12:57:03;15.3;74.1
78520;SHT31;67818;51.986;5.648;2023-10-31T12:59:33;15.3;75.0
78520;SHT31;67818;51.986;5.648;2023-10-31T13:02:03;15.3;74.8
78520;SHT31;67818;51.986;5.648;2023-10-31T13:04:33;15.3;75.0
78520;SHT31;67818;51.986;5.648;2023-10-31T13:07:03;15.4;74.2
78520;SHT31;67818;51.986;5.648;2023-10-31T13:09:34;15.4;73.2
78520;SHT31;67818;51.986;5.648;2023-10-31T13:12:06;15.4;72.6
78520;SHT31;67818;51.986;5.648;2023-10-31T13:14:37;15.4;74.6
78520;SHT31;67818;51.986;5.648;2023-10-31T13:17:06;15.4;73.8
78520;SHT31;67818;51.986;5.648;2023-10-31T13:19:35;15.4;73.8
78520;SHT31;67818;51.986;5.648;2023-10-31T13:22:03;15.4;73.4
78520;SHT31;67818;51.986;5.648;2023-10-31T13:24:31;15.4;73.6
78520;SHT31;67818;51.986;5.648;2023-10-31T13:27:00;15.4;72.7
78520;SHT31;67818;51.986;5.648;2023-10-31T13:29:30;15.4;71.9
78520;SHT31;67818;51.986;5.648;2023-10-31T13:31:59;15.4;72.2
78520;SHT31;67818;51.986;5.648;2023-10-31T13:34:27;15.3;72.1
78520;SHT31;67818;51.986;5.648;2023-10-31T13:36:59;15.3;72.5
78520;SHT31;67818;51.986;5.648;2023-10-31T13:39:28;15.2;72.0
78520;SHT31;67818;51.986;5.648;2023-10-31T13:41:57;15.2;72.7
78520;SHT31;67818;51.986;5.648;2023-10-31T13:44:25;15.2;72.4
78520;SHT31;67818;51.986;5.648;2023-10-31T13:46:54;15.1;71.8
78520;SHT31;67818;51.986;5.648;2023-10-31T13:49:23;15.1;72.2
78520;SHT31;67818;51.986;5.648;2023-10-31T13:51:51;15.1;71.4
78520;SHT31;67818;51.986;5.648;2023-10-31T13:54:20;15.1;72.0
78520;SHT31;67818;51.986;5.648;2023-10-31T13:56:49;15.0;71.8
78520;SHT31;67818;51.986;5.648;2023-10-31T13:59:18;15.0;70.9
78520;SHT31;67818;51.986;5.648;2023-10-31T14:01:47;14.9;71.1
78520;SHT31;67818;51.986;5.648;2023-10-31T14:04:18;14.8;71.2
78520;SHT31;67818;51.986;5.648;2023-10-31T14:06:47;14.8;71.9
78520;SHT31;67818;51.986;5.648;2023-10-31T14:09:16;14.7;72.1
78520;SHT31;67818;51.986;5.648;2023-10-31T14:11:44;14.6;72.9
78520;SHT31;67818;51.986;5.648;2023-10-31T14:14:13;14.6;73.1
78520;SHT31;67818;51.986;5.648;2023-10-31T14:16:42;14.6;73.4
78520;SHT31;67818;51.986;5.648;2023-10-31T14:19:12;14.5;73.4
78520;SHT31;67818;51.986;5.648;2023-10-31T14:21:42;14.5;74.3
78520;SHT31;67818;51.986;5.648;2023-10-31T14:24:11;14.5;73.5
78520;SHT31;67818;51.986;5.648;2023-10-31T14:26:40;14.5;74.3
78520;SHT31;67818;51.986;5.648;2023-10-31T14:29:10;14.5;74.4
78520;SHT31;67818;51.986;5.648;2023-10-31T14:31:42;14.4;74.6
78520;SHT31;67818;51.986;5.648;2023-10-31T14:34:11;14.4;75.3
78520;SHT31;67818;51.986;5.648;2023-10-31T14:36:39;14.4;75.0
78520;SHT31;67818;51.986;5.648;2023-10-31T14:39:08;14.4;74.7
78520;SHT31;67818;51.986;5.648;2023-10-31T14:41:38;14.4;73.8
78520;SHT31;67818;51.986;5.648;2023-10-31T14:44:08;14.4;74.3
78520;SHT31;67818;51.986;5.648;2023-10-31T14:46:36;14.4;73.8
78520;SHT31;67818;51.986;5.648;2023-10-31T14:49:06;14.4;74.0
78520;SHT31;67818;51.986;5.648;2023-10-31T14:51:34;14.4;73.9
78520;SHT31;67818;51.986;5.648;2023-10-31T14:54:03;14.4;73.8
78520;SHT31;67818;51.986;5.648;2023-10-31T14:56:32;14.4;72.5
78520;SHT31;67818;51.986;5.648;2023-10-31T14:59:02;14.4;72.8
78520;SHT31;67818;51.986;5.648;2023-10-31T15:01:31;14.3;72.9
78520;SHT31;67818;51.986;5.648;2023-10-31T15:03:59;14.3;73.4
78520;SHT31;67818;51.986;5.648;2023-10-31T15:06:28;14.3;73.9
78520;SHT31;67818;51.986;5.648;2023-10-31T15:08:57;14.2;74.1
78520;SHT31;67818;51.986;5.648;2023-10-31T15:11:25;14.2;74.7
78520;SHT31;67818;51.986;5.648;2023-10-31T15:13:54;14.2;74.8
78520;SHT31;67818;51.986;5.648;2023-10-31T15:16:23;14.1;75.6
78520;SHT31;67818;51.986;5.648;2023-10-31T15:18:52;14.1;75.4
78520;SHT31;67818;51.986;5.648;2023-10-31T15:21:20;14.1;75.8
78520;SHT31;67818;51.986;5.648;2023-10-31T15:23:49;14.0;76.2
78520;SHT31;67818;51.986;5.648;2023-10-31T15:26:17;14.0;76.2
78520;SHT31;67818;51.986;5.648;2023-10-31T15:28:50;14.0;77.0
78520;SHT31;67818;51.986;5.648;2023-10-31T15:31:19;13.9;77.0
78520;SHT31;67818;51.986;5.648;2023-10-31T15:33:48;13.9;77.4
78520;SHT31;67818;51.986;5.648;2023-10-31T15:36:17;13.9;77.7
78520;SHT31;67818;51.986;5.648;2023-10-31T15:38:45;13.8;76.9
78520;SHT31;67818;51.986;5.648;2023-10-31T15:41:16;13.8;77.1
78520;SHT31;67818;51.986;5.648;2023-10-31T15:43:47;13.8;77.3
78520;SHT31;67818;51.986;5.648;2023-10-31T15:46:16;13.7;77.6
78520;SHT31;67818;51.986;5.648;2023-10-31T15:48:44;13.7;78.1
78520;SHT31;67818;51.986;5.648;2023-10-31T15:51:13;13.7;78.1
78520;SHT31;67818;51.986;5.648;2023-10-31T15:53:41;13.6;78.2
78520;SHT31;67818;51.986;5.648;2023-10-31T15:56:10;13.6;78.5
78520;SHT31;67818;51.986;5.648;2023-10-31T15:58:39;13.6;79.0
78520;SHT31;67818;51.986;5.648;2023-10-31T16:01:08;13.5;79.3
78520;SHT31;67818;51.986;5.648;2023-10-31T16:03:37;13.5;79.2
78520;SHT31;67818;51.986;5.648;2023-10-31T16:06:09;13.5;79.2
78520;SHT31;67818;51.986;5.648;2023-10-31T16:08:38;13.5;79.3
78520;SHT31;67818;51.986;5.648;2023-10-31T16:11:07;13.5;79.3
78520;SHT31;67818;51.986;5.648;2023-10-31T16:13:36;13.5;79.1
78520;SHT31;67818;51.986;5.648;2023-10-31T16:16:08;13.5;79.3